Hlavní strana
METAR-TAF:

METAR-TAF

Letiště :

Sandefjord, Norsko

zeměpisná šířka: 59-12N, zeměpisná délka: 010-16E, výška: 8 m

Aktuální stav počasí

Zpráva byla vytvořena před 11 minutami, v 16:20 UTC
Severní vítr 8 kt
Teplota 2°C
Vlhkost vzduchu 93%
Tlak 1040 hPa
Viditelnost 10 km a více
Žádná oblačnost pod 1500 m, nevyskytují se cumulonimby.

METAR: ENTO 181620Z 01008KT CAVOK 02/01 Q1040

Čas: 17:31 (16:31 UTC)

Předpověď počasí

Předpověď platná od 18 v 12 UTC do 19 v 12 UTC
Severní vítr 10 kt
Viditelnost 10 km a více
Skoro jasno ve výšce 2000 ft
Pravděpodobnost 30%
od 18 v 22 UTC do 19 v 12 UTC
Oblačno až skoro zataženo ve výšce 800 ft

TAF: ENTO 1812/1912 01010KT 9999 FEW020 PROB30 1822/1912 BKN008

Stav a předpovědi počasí z více než 4 000 letišť (zprávy METAR a TAF).

Červené a žluté tečky na mapě představují dostupné meteorologické stanice.

Když kurzor umístíte na tečku, zobrazí se název stanice.

Pak kliknutím zobrazíte stav a předpověď počasí.

Chcete-li změnit mapu, kliknutím na zelené tlačítko se znaménkem +mapu přiblížíte, kliknutím na zelené tlačítko se znaménkem – mapu oddálíte a kliknutím na zelené šipky přejdete na sousední mapy.


METAR-TAF: